sensor_id;sensor_type;location;lat;lon;timestamp;pressure;altitude;pressure_sealevel;temperature;humidity
15529;BME280;7866;52.280;9.500;2023-04-09T00:02:00;101433.97;;;4.28;85.85
15529;BME280;7866;52.280;9.500;2023-04-09T00:07:02;101445.97;;;4.34;86.58
15529;BME280;7866;52.280;9.500;2023-04-09T00:12:05;101438.03;;;4.47;86.16
15529;BME280;7866;52.280;9.500;2023-04-09T00:17:07;101432.09;;;4.43;85.92
15529;BME280;7866;52.280;9.500;2023-04-09T00:22:08;101442.28;;;4.49;86.46
15529;BME280;7866;52.280;9.500;2023-04-09T00:27:11;101433.78;;;4.44;85.78
15529;BME280;7866;52.280;9.500;2023-04-09T00:32:13;101435.31;;;4.61;85.65
15529;BME280;7866;52.280;9.500;2023-04-09T00:37:14;101429.81;;;4.77;86.49
15529;BME280;7866;52.280;9.500;2023-04-09T00:42:17;101419.19;;;4.77;86.41
15529;BME280;7866;52.280;9.500;2023-04-09T00:47:20;101425.66;;;4.73;86.35
15529;BME280;7866;52.280;9.500;2023-04-09T00:52:23;101425.41;;;4.50;85.70
15529;BME280;7866;52.280;9.500;2023-04-09T00:57:26;101428.69;;;4.41;85.67
15529;BME280;7866;52.280;9.500;2023-04-09T01:02:28;101422.53;;;4.40;86.17
15529;BME280;7866;52.280;9.500;2023-04-09T01:07:42;101420.19;;;4.36;85.68
15529;BME280;7866;52.280;9.500;2023-04-09T01:12:57;101410.09;;;4.28;86.05
15529;BME280;7866;52.280;9.500;2023-04-09T01:18:05;101417.41;;;4.25;86.00
15529;BME280;7866;52.280;9.500;2023-04-09T01:23:15;101414.56;;;4.28;87.15
15529;BME280;7866;52.280;9.500;2023-04-09T01:28:22;101412.94;;;4.25;86.55
15529;BME280;7866;52.280;9.500;2023-04-09T01:33:26;101410.00;;;4.30;85.80
15529;BME280;7866;52.280;9.500;2023-04-09T01:38:29;101404.09;;;4.39;86.12
15529;BME280;7866;52.280;9.500;2023-04-09T01:43:32;101404.16;;;4.37;86.36
15529;BME280;7866;52.280;9.500;2023-04-09T01:48:35;101401.06;;;4.31;86.38
15529;BME280;7866;52.280;9.500;2023-04-09T01:53:37;101404.03;;;4.26;85.34
15529;BME280;7866;52.280;9.500;2023-04-09T01:58:40;101403.81;;;4.16;85.44
15529;BME280;7866;52.280;9.500;2023-04-09T02:03:45;101394.03;;;4.04;85.01
15529;BME280;7866;52.280;9.500;2023-04-09T02:08:50;101405.22;;;3.95;86.22
15529;BME280;7866;52.280;9.500;2023-04-09T02:13:54;101404.78;;;3.88;85.60
15529;BME280;7866;52.280;9.500;2023-04-09T02:18:56;101399.00;;;3.82;86.49
15529;BME280;7866;52.280;9.500;2023-04-09T02:24:00;101399.97;;;3.81;86.62
15529;BME280;7866;52.280;9.500;2023-04-09T02:29:03;101396.50;;;3.66;85.32
15529;BME280;7866;52.280;9.500;2023-04-09T02:34:05;101385.66;;;3.56;86.39
15529;BME280;7866;52.280;9.500;2023-04-09T02:39:06;101387.47;;;3.56;86.47
15529;BME280;7866;52.280;9.500;2023-04-09T02:44:09;101388.50;;;3.53;86.21
15529;BME280;7866;52.280;9.500;2023-04-09T02:49:11;101384.47;;;3.48;86.26
15529;BME280;7866;52.280;9.500;2023-04-09T02:54:13;101386.44;;;3.44;85.66
15529;BME280;7866;52.280;9.500;2023-04-09T02:59:16;101376.81;;;3.29;85.52
15529;BME280;7866;52.280;9.500;2023-04-09T03:04:17;101374.34;;;3.26;86.57
15529;BME280;7866;52.280;9.500;2023-04-09T03:09:19;101365.88;;;3.20;86.41
15529;BME280;7866;52.280;9.500;2023-04-09T03:14:22;101372.38;;;3.15;86.13
15529;BME280;7866;52.280;9.500;2023-04-09T03:19:23;101361.34;;;3.08;85.84
15529;BME280;7866;52.280;9.500;2023-04-09T03:24:25;101364.94;;;3.07;86.13
15529;BME280;7866;52.280;9.500;2023-04-09T03:29:28;101360.03;;;3.01;86.14
15529;BME280;7866;52.280;9.500;2023-04-09T03:34:29;101359.09;;;2.88;85.49
15529;BME280;7866;52.280;9.500;2023-04-09T03:39:31;101354.94;;;2.84;85.97
15529;BME280;7866;52.280;9.500;2023-04-09T03:44:34;101359.75;;;2.77;85.94
15529;BME280;7866;52.280;9.500;2023-04-09T03:49:36;101353.97;;;2.70;86.04
15529;BME280;7866;52.280;9.500;2023-04-09T03:54:37;101353.59;;;2.77;86.33
15529;BME280;7866;52.280;9.500;2023-04-09T03:59:40;101356.44;;;2.74;86.10
15529;BME280;7866;52.280;9.500;2023-04-09T04:04:42;101356.44;;;2.74;85.83
15529;BME280;7866;52.280;9.500;2023-04-09T04:09:44;101357.28;;;2.74;85.84
15529;BME280;7866;52.280;9.500;2023-04-09T04:14:47;101368.25;;;2.68;85.67
15529;BME280;7866;52.280;9.500;2023-04-09T04:19:48;101367.78;;;2.76;85.76
15529;BME280;7866;52.280;9.500;2023-04-09T04:24:50;101375.44;;;2.80;85.68
15529;BME280;7866;52.280;9.500;2023-04-09T04:29:53;101375.88;;;2.87;85.51
15529;BME280;7866;52.280;9.500;2023-04-09T04:34:54;101378.06;;;2.94;86.02
15529;BME280;7866;52.280;9.500;2023-04-09T04:39:56;101386.00;;;2.94;85.72
15529;BME280;7866;52.280;9.500;2023-04-09T04:44:59;101389.31;;;2.98;85.91
15529;BME280;7866;52.280;9.500;2023-04-09T04:50:01;101391.66;;;3.03;86.18
15529;BME280;7866;52.280;9.500;2023-04-09T04:55:02;101395.47;;;3.13;86.82
15529;BME280;7866;52.280;9.500;2023-04-09T05:00:07;101394.53;;;3.00;86.10
15529;BME280;7866;52.280;9.500;2023-04-09T05:05:09;101398.75;;;3.02;86.97
15529;BME280;7866;52.280;9.500;2023-04-09T05:10:10;101401.72;;;3.12;86.99
15529;BME280;7866;52.280;9.500;2023-04-09T05:15:13;101405.75;;;2.89;87.24
15529;BME280;7866;52.280;9.500;2023-04-09T05:20:15;101409.75;;;2.96;87.82
15529;BME280;7866;52.280;9.500;2023-04-09T05:25:17;101407.56;;;3.17;88.02
15529;BME280;7866;52.280;9.500;2023-04-09T05:30:20;101414.66;;;3.16;88.86
15529;BME280;7866;52.280;9.500;2023-04-09T05:35:21;101411.81;;;3.19;88.26
15529;BME280;7866;52.280;9.500;2023-04-09T05:40:23;101410.19;;;3.31;88.79
15529;BME280;7866;52.280;9.500;2023-04-09T05:45:26;101427.00;;;3.30;89.01
15529;BME280;7866;52.280;9.500;2023-04-09T05:50:28;101424.47;;;3.29;89.31
15529;BME280;7866;52.280;9.500;2023-04-09T05:55:30;101423.31;;;3.18;89.42
15529;BME280;7866;52.280;9.500;2023-04-09T06:00:34;101425.97;;;3.33;89.44
15529;BME280;7866;52.280;9.500;2023-04-09T06:05:35;101423.69;;;3.41;89.48
15529;BME280;7866;52.280;9.500;2023-04-09T06:10:37;101431.03;;;3.64;89.73
15529;BME280;7866;52.280;9.500;2023-04-09T06:15:40;101423.66;;;3.69;88.49
15529;BME280;7866;52.280;9.500;2023-04-09T06:20:42;101430.16;;;3.78;88.75
15529;BME280;7866;52.280;9.500;2023-04-09T06:25:43;101432.13;;;3.89;89.11
15529;BME280;7866;52.280;9.500;2023-04-09T06:30:46;101428.16;;;4.09;88.59
15529;BME280;7866;52.280;9.500;2023-04-09T06:35:48;101432.28;;;4.00;88.41
15529;BME280;7866;52.280;9.500;2023-04-09T06:40:50;101431.13;;;4.31;88.59
15529;BME280;7866;52.280;9.500;2023-04-09T06:45:53;101432.00;;;4.57;87.76
15529;BME280;7866;52.280;9.500;2023-04-09T06:50:54;101431.50;;;4.78;87.24
15529;BME280;7866;52.280;9.500;2023-04-09T06:55:56;101438.09;;;5.10;86.64
15529;BME280;7866;52.280;9.500;2023-04-09T07:00:59;101429.81;;;5.28;85.99
15529;BME280;7866;52.280;9.500;2023-04-09T07:06:01;101425.84;;;5.33;86.52
15529;BME280;7866;52.280;9.500;2023-04-09T07:11:02;101430.84;;;5.51;87.74
15529;BME280;7866;52.280;9.500;2023-04-09T07:16:05;101428.16;;;6.00;86.46
15529;BME280;7866;52.280;9.500;2023-04-09T07:21:07;101434.94;;;6.28;88.13
15529;BME280;7866;52.280;9.500;2023-04-09T07:26:09;101434.25;;;6.37;90.43
15529;BME280;7866;52.280;9.500;2023-04-09T07:31:12;101431.53;;;6.61;90.39
15529;BME280;7866;52.280;9.500;2023-04-09T07:36:14;101429.56;;;6.87;90.22
15529;BME280;7866;52.280;9.500;2023-04-09T07:41:16;101435.00;;;6.97;89.54
15529;BME280;7866;52.280;9.500;2023-04-09T07:46:19;101428.94;;;6.84;90.19
15529;BME280;7866;52.280;9.500;2023-04-09T07:51:21;101427.84;;;6.98;90.66
15529;BME280;7866;52.280;9.500;2023-04-09T07:56:23;101437.78;;;6.96;90.85
15529;BME280;7866;52.280;9.500;2023-04-09T08:01:26;101434.19;;;7.08;91.23
15529;BME280;7866;52.280;9.500;2023-04-09T08:06:28;101438.41;;;6.99;91.81
15529;BME280;7866;52.280;9.500;2023-04-09T08:11:30;101444.19;;;6.93;92.06
15529;BME280;7866;52.280;9.500;2023-04-09T08:16:33;101445.09;;;7.16;92.38
15529;BME280;7866;52.280;9.500;2023-04-09T08:21:36;101443.88;;;7.31;91.67
15529;BME280;7866;52.280;9.500;2023-04-09T08:26:39;101449.06;;;7.22;92.07
15529;BME280;7866;52.280;9.500;2023-04-09T08:31:42;101445.22;;;7.48;91.26
15529;BME280;7866;52.280;9.500;2023-04-09T08:36:44;101444.00;;;7.41;90.27
15529;BME280;7866;52.280;9.500;2023-04-09T08:41:46;101451.75;;;7.33;90.82
15529;BME280;7866;52.280;9.500;2023-04-09T08:46:49;101444.09;;;7.62;89.74
15529;BME280;7866;52.280;9.500;2023-04-09T08:51:51;101444.63;;;8.10;88.29
15529;BME280;7866;52.280;9.500;2023-04-09T08:56:53;101443.44;;;8.03;87.53
15529;BME280;7866;52.280;9.500;2023-04-09T09:02:07;101446.50;;;7.76;88.31
15529;BME280;7866;52.280;9.500;2023-04-09T09:07:09;101446.78;;;8.17;88.20
15529;BME280;7866;52.280;9.500;2023-04-09T09:12:10;101450.16;;;7.86;87.71
15529;BME280;7866;52.280;9.500;2023-04-09T09:17:13;101444.22;;;7.83;88.36
15529;BME280;7866;52.280;9.500;2023-04-09T09:22:15;101446.56;;;8.08;88.12
15529;BME280;7866;52.280;9.500;2023-04-09T09:27:34;101439.38;;;8.73;86.36
15529;BME280;7866;52.280;9.500;2023-04-09T09:32:39;101444.91;;;7.96;84.98
15529;BME280;7866;52.280;9.500;2023-04-09T09:37:41;101444.63;;;8.75;84.42
15529;BME280;7866;52.280;9.500;2023-04-09T09:42:53;101448.53;;;8.71;83.68
15529;BME280;7866;52.280;9.500;2023-04-09T09:47:56;101452.28;;;9.10;82.73
15529;BME280;7866;52.280;9.500;2023-04-09T09:53:02;101447.72;;;9.22;82.93
15529;BME280;7866;52.280;9.500;2023-04-09T09:58:10;101442.97;;;8.83;82.10
15529;BME280;7866;52.280;9.500;2023-04-09T10:03:19;101444.94;;;9.02;82.43
15529;BME280;7866;52.280;9.500;2023-04-09T10:08:22;101435.41;;;9.40;82.02
15529;BME280;7866;52.280;9.500;2023-04-09T10:13:29;101439.16;;;9.28;79.40
15529;BME280;7866;52.280;9.500;2023-04-09T10:18:35;101433.16;;;9.85;78.68
15529;BME280;7866;52.280;9.500;2023-04-09T10:23:38;101423.88;;;10.09;78.86
15529;BME280;7866;52.280;9.500;2023-04-09T10:28:42;101415.25;;;9.76;77.98
15529;BME280;7866;52.280;9.500;2023-04-09T10:33:45;101413.00;;;9.72;78.94
15529;BME280;7866;52.280;9.500;2023-04-09T10:38:46;101413.44;;;9.96;78.01
15529;BME280;7866;52.280;9.500;2023-04-09T10:43:50;101395.53;;;9.77;77.57
15529;BME280;7866;52.280;9.500;2023-04-09T10:54:39;101393.13;;;11.55;73.41
15529;BME280;7866;52.280;9.500;2023-04-09T10:59:44;101388.13;;;10.58;74.72
15529;BME280;7866;52.280;9.500;2023-04-09T11:05:04;101387.84;;;10.62;75.75
15529;BME280;7866;52.280;9.500;2023-04-09T11:10:12;101389.06;;;11.24;73.40
15529;BME280;7866;52.280;9.500;2023-04-09T11:15:18;101381.31;;;11.48;71.38
15529;BME280;7866;52.280;9.500;2023-04-09T11:20:21;101388.72;;;10.99;73.29
15529;BME280;7866;52.280;9.500;2023-04-09T11:25:26;101371.41;;;10.84;71.80
15529;BME280;7866;52.280;9.500;2023-04-09T11:30:27;101383.53;;;10.88;72.06
15529;BME280;7866;52.280;9.500;2023-04-09T11:35:33;101380.72;;;11.54;70.03
15529;BME280;7866;52.280;9.500;2023-04-09T11:40:39;101385.19;;;11.36;69.96
15529;BME280;7866;52.280;9.500;2023-04-09T11:45:47;101381.66;;;11.63;69.79
15529;BME280;7866;52.280;9.500;2023-04-09T11:50:49;101389.13;;;11.04;71.74
15529;BME280;7866;52.280;9.500;2023-04-09T11:55:53;101379.69;;;11.00;72.68
15529;BME280;7866;52.280;9.500;2023-04-09T12:00:57;101396.72;;;11.09;72.93
15529;BME280;7866;52.280;9.500;2023-04-09T12:06:00;101380.41;;;11.02;73.16
15529;BME280;7866;52.280;9.500;2023-04-09T12:11:10;101378.53;;;10.66;74.14
15529;BME280;7866;52.280;9.500;2023-04-09T12:16:13;101380.72;;;10.90;72.85
15529;BME280;7866;52.280;9.500;2023-04-09T12:21:14;101371.19;;;11.42;72.39
15529;BME280;7866;52.280;9.500;2023-04-09T12:26:18;101364.72;;;11.90;70.74
15529;BME280;7866;52.280;9.500;2023-04-09T12:31:20;101370.97;;;12.17;68.35
15529;BME280;7866;52.280;9.500;2023-04-09T12:36:21;101359.13;;;12.01;68.76
15529;BME280;7866;52.280;9.500;2023-04-09T12:41:25;101355.34;;;11.94;68.21
15529;BME280;7866;52.280;9.500;2023-04-09T12:46:27;101343.84;;;12.02;67.21
15529;BME280;7866;52.280;9.500;2023-04-09T12:51:28;101345.69;;;12.01;68.13
15529;BME280;7866;52.280;9.500;2023-04-09T12:56:32;101346.56;;;11.74;68.71
15529;BME280;7866;52.280;9.500;2023-04-09T13:01:33;101350.09;;;11.29;68.67
15529;BME280;7866;52.280;9.500;2023-04-09T13:06:35;101340.22;;;10.93;70.11
15529;BME280;7866;52.280;9.500;2023-04-09T13:11:38;101338.50;;;11.01;69.80
15529;BME280;7866;52.280;9.500;2023-04-09T13:16:40;101344.22;;;10.79;69.13
15529;BME280;7866;52.280;9.500;2023-04-09T13:21:41;101332.25;;;11.10;69.10
15529;BME280;7866;52.280;9.500;2023-04-09T13:26:44;101330.03;;;10.96;69.71
15529;BME280;7866;52.280;9.500;2023-04-09T13:31:46;101330.22;;;10.85;69.33
15529;BME280;7866;52.280;9.500;2023-04-09T13:36:48;101324.19;;;10.83;69.20
15529;BME280;7866;52.280;9.500;2023-04-09T13:41:51;101320.63;;;10.92;69.19
15529;BME280;7866;52.280;9.500;2023-04-09T13:46:54;101306.44;;;11.37;68.73
15529;BME280;7866;52.280;9.500;2023-04-09T13:51:56;101302.13;;;11.90;67.36
15529;BME280;7866;52.280;9.500;2023-04-09T13:57:00;101303.56;;;13.06;64.35
15529;BME280;7866;52.280;9.500;2023-04-09T14:02:02;101299.56;;;12.50;64.25
15529;BME280;7866;52.280;9.500;2023-04-09T14:07:03;101297.91;;;12.83;64.04
15529;BME280;7866;52.280;9.500;2023-04-09T14:12:06;101292.44;;;13.43;61.19
15529;BME280;7866;52.280;9.500;2023-04-09T14:17:08;101294.03;;;13.20;62.45
15529;BME280;7866;52.280;9.500;2023-04-09T14:22:09;101291.31;;;13.12;61.53
15529;BME280;7866;52.280;9.500;2023-04-09T14:27:13;101290.94;;;12.98;62.92
15529;BME280;7866;52.280;9.500;2023-04-09T14:32:14;101280.03;;;12.66;62.98
15529;BME280;7866;52.280;9.500;2023-04-09T14:37:16;101281.03;;;13.07;62.05
15529;BME280;7866;52.280;9.500;2023-04-09T14:42:19;101285.44;;;12.48;64.13
15529;BME280;7866;52.280;9.500;2023-04-09T14:47:21;101263.41;;;12.44;63.84
15529;BME280;7866;52.280;9.500;2023-04-09T14:52:22;101267.84;;;12.27;64.51
15529;BME280;7866;52.280;9.500;2023-04-09T14:57:26;101265.41;;;13.45;61.53
15529;BME280;7866;52.280;9.500;2023-04-09T15:02:28;101255.94;;;13.33;61.49
15529;BME280;7866;52.280;9.500;2023-04-09T15:07:29;101256.25;;;12.87;62.46
15529;BME280;7866;52.280;9.500;2023-04-09T15:12:32;101250.06;;;12.61;62.75
15529;BME280;7866;52.280;9.500;2023-04-09T15:17:34;101251.47;;;12.65;63.10
15529;BME280;7866;52.280;9.500;2023-04-09T15:22:36;101246.72;;;13.68;60.98
15529;BME280;7866;52.280;9.500;2023-04-09T15:27:39;101239.16;;;13.71;59.60
15529;BME280;7866;52.280;9.500;2023-04-09T15:32:41;101233.78;;;13.55;58.15
15529;BME280;7866;52.280;9.500;2023-04-09T15:37:42;101223.69;;;13.98;57.95
15529;BME280;7866;52.280;9.500;2023-04-09T15:42:45;101228.91;;;13.75;55.53
15529;BME280;7866;52.280;9.500;2023-04-09T15:47:47;101224.84;;;14.03;56.81
15529;BME280;7866;52.280;9.500;2023-04-09T15:52:49;101227.22;;;14.07;56.88
15529;BME280;7866;52.280;9.500;2023-04-09T15:57:52;101231.28;;;13.78;57.02
15529;BME280;7866;52.280;9.500;2023-04-09T16:02:54;101226.69;;;13.38;56.83
15529;BME280;7866;52.280;9.500;2023-04-09T16:07:56;101219.78;;;13.27;56.87
15529;BME280;7866;52.280;9.500;2023-04-09T16:12:59;101214.34;;;13.19;56.82
15529;BME280;7866;52.280;9.500;2023-04-09T16:18:01;101213.00;;;13.15;57.02
15529;BME280;7866;52.280;9.500;2023-04-09T16:23:02;101212.31;;;13.13;57.71
15529;BME280;7866;52.280;9.500;2023-04-09T16:28:05;101211.94;;;12.99;58.13
15529;BME280;7866;52.280;9.500;2023-04-09T16:33:08;101217.84;;;13.03;58.20
15529;BME280;7866;52.280;9.500;2023-04-09T16:38:10;101205.03;;;12.89;57.88
15529;BME280;7866;52.280;9.500;2023-04-09T16:43:14;101208.84;;;12.78;58.59
15529;BME280;7866;52.280;9.500;2023-04-09T16:48:15;101207.06;;;12.61;59.14
15529;BME280;7866;52.280;9.500;2023-04-09T16:53:17;101195.31;;;12.53;58.82
15529;BME280;7866;52.280;9.500;2023-04-09T16:58:20;101206.38;;;12.24;60.69
15529;BME280;7866;52.280;9.500;2023-04-09T17:03:22;101211.50;;;12.10;61.60
15529;BME280;7866;52.280;9.500;2023-04-09T17:08:23;101207.97;;;11.83;62.53
15529;BME280;7866;52.280;9.500;2023-04-09T17:13:27;101207.03;;;11.56;63.65
15529;BME280;7866;52.280;9.500;2023-04-09T17:18:28;101204.66;;;11.35;64.45
15529;BME280;7866;52.280;9.500;2023-04-09T17:23:30;101216.34;;;11.17;65.04
15529;BME280;7866;52.280;9.500;2023-04-09T17:28:33;101209.50;;;10.87;65.96
15529;BME280;7866;52.280;9.500;2023-04-09T17:33:35;101216.19;;;10.73;67.27
15529;BME280;7866;52.280;9.500;2023-04-09T17:38:37;101209.13;;;10.44;67.67
15529;BME280;7866;52.280;9.500;2023-04-09T17:43:40;101210.06;;;10.25;68.44
15529;BME280;7866;52.280;9.500;2023-04-09T17:48:42;101211.34;;;9.92;69.31
15529;BME280;7866;52.280;9.500;2023-04-09T17:53:44;101211.81;;;9.78;69.96
15529;BME280;7866;52.280;9.500;2023-04-09T17:58:47;101208.88;;;9.52;70.91
15529;BME280;7866;52.280;9.500;2023-04-09T18:03:49;101220.09;;;9.36;70.49
15529;BME280;7866;52.280;9.500;2023-04-09T18:08:51;101219.97;;;9.28;71.19
15529;BME280;7866;52.280;9.500;2023-04-09T18:13:54;101220.19;;;9.05;71.63
15529;BME280;7866;52.280;9.500;2023-04-09T18:18:56;101213.75;;;8.98;71.87
15529;BME280;7866;52.280;9.500;2023-04-09T18:23:58;101225.22;;;8.89;71.59
15529;BME280;7866;52.280;9.500;2023-04-09T18:29:01;101217.16;;;8.70;72.64
15529;BME280;7866;52.280;9.500;2023-04-09T18:34:02;101218.69;;;8.62;72.39
15529;BME280;7866;52.280;9.500;2023-04-09T18:39:04;101213.53;;;8.40;72.94
15529;BME280;7866;52.280;9.500;2023-04-09T18:44:07;101215.28;;;8.30;73.54
15529;BME280;7866;52.280;9.500;2023-04-09T18:49:08;101219.75;;;8.29;73.53
15529;BME280;7866;52.280;9.500;2023-04-09T18:54:10;101225.38;;;8.26;74.06
15529;BME280;7866;52.280;9.500;2023-04-09T18:59:13;101214.38;;;8.20;73.30
15529;BME280;7866;52.280;9.500;2023-04-09T19:04:15;101216.31;;;8.18;73.24
15529;BME280;7866;52.280;9.500;2023-04-09T19:09:17;101225.38;;;8.05;73.59
15529;BME280;7866;52.280;9.500;2023-04-09T19:14:20;101220.91;;;8.06;73.63
15529;BME280;7866;52.280;9.500;2023-04-09T19:19:21;101217.47;;;7.94;73.94
15529;BME280;7866;52.280;9.500;2023-04-09T19:24:23;101215.50;;;7.75;74.06
15529;BME280;7866;52.280;9.500;2023-04-09T19:29:26;101222.91;;;7.72;74.59
15529;BME280;7866;52.280;9.500;2023-04-09T19:34:28;101222.97;;;7.81;74.44
15529;BME280;7866;52.280;9.500;2023-04-09T19:39:30;101228.00;;;7.75;74.29
15529;BME280;7866;52.280;9.500;2023-04-09T19:44:33;101211.28;;;7.73;74.00
15529;BME280;7866;52.280;9.500;2023-04-09T19:49:34;101210.16;;;7.54;74.45
15529;BME280;7866;52.280;9.500;2023-04-09T19:54:36;101205.53;;;7.56;74.83
15529;BME280;7866;52.280;9.500;2023-04-09T19:59:39;101206.78;;;7.52;74.69
15529;BME280;7866;52.280;9.500;2023-04-09T20:04:41;101208.38;;;7.44;75.32
15529;BME280;7866;52.280;9.500;2023-04-09T20:09:42;101212.75;;;7.45;74.81
15529;BME280;7866;52.280;9.500;2023-04-09T20:14:47;101220.78;;;7.33;75.26
15529;BME280;7866;52.280;9.500;2023-04-09T20:19:49;101228.50;;;7.36;75.39
15529;BME280;7866;52.280;9.500;2023-04-09T20:24:51;101232.25;;;7.34;75.38
15529;BME280;7866;52.280;9.500;2023-04-09T20:29:54;101226.47;;;7.29;75.25
15529;BME280;7866;52.280;9.500;2023-04-09T20:34:55;101228.94;;;7.21;75.78
15529;BME280;7866;52.280;9.500;2023-04-09T20:39:57;101222.91;;;7.19;76.47
15529;BME280;7866;52.280;9.500;2023-04-09T20:45:00;101216.81;;;7.16;76.22
15529;BME280;7866;52.280;9.500;2023-04-09T20:50:02;101206.34;;;7.04;76.47
15529;BME280;7866;52.280;9.500;2023-04-09T20:55:05;101198.97;;;6.96;76.91
15529;BME280;7866;52.280;9.500;2023-04-09T21:00:09;101200.56;;;6.99;76.45
15529;BME280;7866;52.280;9.500;2023-04-09T21:05:10;101188.47;;;6.95;77.11
15529;BME280;7866;52.280;9.500;2023-04-09T21:10:12;101187.50;;;6.84;77.23
15529;BME280;7866;52.280;9.500;2023-04-09T21:15:15;101193.19;;;6.80;77.34
15529;BME280;7866;52.280;9.500;2023-04-09T21:20:17;101186.56;;;6.63;78.07
15529;BME280;7866;52.280;9.500;2023-04-09T21:25:19;101187.19;;;6.66;77.67
15529;BME280;7866;52.280;9.500;2023-04-09T21:30:22;101191.75;;;6.64;78.31
15529;BME280;7866;52.280;9.500;2023-04-09T21:35:23;101184.00;;;6.61;78.34
15529;BME280;7866;52.280;9.500;2023-04-09T21:40:25;101179.66;;;6.60;78.13
15529;BME280;7866;52.280;9.500;2023-04-09T21:45:28;101176.31;;;6.58;77.98
15529;BME280;7866;52.280;9.500;2023-04-09T21:50:30;101177.88;;;6.38;78.62
15529;BME280;7866;52.280;9.500;2023-04-09T21:55:32;101172.28;;;6.30;78.78
15529;BME280;7866;52.280;9.500;2023-04-09T22:00:37;101166.63;;;6.24;79.17
15529;BME280;7866;52.280;9.500;2023-04-09T22:05:38;101172.44;;;6.29;79.86
15529;BME280;7866;52.280;9.500;2023-04-09T22:10:40;101162.88;;;6.26;78.82
15529;BME280;7866;52.280;9.500;2023-04-09T22:15:43;101165.88;;;6.22;79.38
15529;BME280;7866;52.280;9.500;2023-04-09T22:20:45;101166.88;;;6.21;79.30
15529;BME280;7866;52.280;9.500;2023-04-09T22:25:46;101157.56;;;6.15;79.99
15529;BME280;7866;52.280;9.500;2023-04-09T22:30:50;101157.81;;;6.12;80.13
15529;BME280;7866;52.280;9.500;2023-04-09T22:35:52;101165.91;;;6.10;79.89
15529;BME280;7866;52.280;9.500;2023-04-09T22:40:54;101167.59;;;6.00;79.69
15529;BME280;7866;52.280;9.500;2023-04-09T22:45:57;101157.44;;;6.05;79.56
15529;BME280;7866;52.280;9.500;2023-04-09T22:50:59;101164.91;;;6.00;79.65
15529;BME280;7866;52.280;9.500;2023-04-09T22:56:00;101167.09;;;5.95;79.95
15529;BME280;7866;52.280;9.500;2023-04-09T23:01:04;101155.81;;;5.80;80.18
15529;BME280;7866;52.280;9.500;2023-04-09T23:06:06;101144.56;;;5.77;80.64
15529;BME280;7866;52.280;9.500;2023-04-09T23:11:08;101142.25;;;5.72;80.43
15529;BME280;7866;52.280;9.500;2023-04-09T23:16:12;101147.81;;;5.69;80.93
15529;BME280;7866;52.280;9.500;2023-04-09T23:21:13;101145.25;;;5.56;81.15
15529;BME280;7866;52.280;9.500;2023-04-09T23:26:15;101152.19;;;5.46;81.42
15529;BME280;7866;52.280;9.500;2023-04-09T23:31:18;101155.59;;;5.48;81.30
15529;BME280;7866;52.280;9.500;2023-04-09T23:36:20;101162.28;;;5.30;81.51
15529;BME280;7866;52.280;9.500;2023-04-09T23:41:23;101161.84;;;5.36;81.26
15529;BME280;7866;52.280;9.500;2023-04-09T23:46:26;101157.25;;;5.38;81.20
15529;BME280;7866;52.280;9.500;2023-04-09T23:51:28;101161.63;;;5.39;81.29
15529;BME280;7866;52.280;9.500;2023-04-09T23:56:30;101158.69;;;5.31;81.14
